createdAt,value
2018-05-21T00:00:45.051Z,12.60
2018-05-21T00:03:13.334Z,12.60
2018-05-21T00:05:41.744Z,12.60
2018-05-21T00:08:10.797Z,12.60
2018-05-21T00:10:39.043Z,12.60
2018-05-21T00:13:08.073Z,12.60
2018-05-21T00:15:37.166Z,12.40
2018-05-21T00:18:05.440Z,12.40
2018-05-21T00:20:33.690Z,12.40
2018-05-21T00:23:01.990Z,12.40
2018-05-21T00:25:30.180Z,12.40
2018-05-21T00:27:58.353Z,12.30
2018-05-21T00:30:26.619Z,12.30
2018-05-21T00:32:54.959Z,12.40
2018-05-21T00:35:23.673Z,12.40
2018-05-21T00:37:51.981Z,12.30
2018-05-21T00:40:20.238Z,12.20
2018-05-21T00:42:48.545Z,12.20
2018-05-21T00:45:16.951Z,12.20
2018-05-21T00:47:45.221Z,12.10
2018-05-21T00:50:14.287Z,12.10
2018-05-21T00:52:43.322Z,12.00
2018-05-21T00:55:23.434Z,12.00
2018-05-21T00:57:51.698Z,12.00
2018-05-21T01:00:19.998Z,12.10
2018-05-21T01:02:49.773Z,12.00
2018-05-21T01:05:18.068Z,11.90
2018-05-21T01:07:46.964Z,11.90
2018-05-21T01:10:15.252Z,11.80
2018-05-21T01:12:44.228Z,11.80
2018-05-21T01:15:12.671Z,11.80
2018-05-21T01:17:40.952Z,11.50
2018-05-21T01:20:09.227Z,11.60
2018-05-21T01:22:37.532Z,11.70
2018-05-21T01:25:06.120Z,11.70
2018-05-21T01:27:34.340Z,11.70
2018-05-21T01:30:02.640Z,11.60
2018-05-21T01:32:30.887Z,11.50
2018-05-21T01:34:59.938Z,11.50
2018-05-21T01:37:28.209Z,11.40
2018-05-21T01:39:56.620Z,11.40
2018-05-21T01:42:25.645Z,11.50
2018-05-21T01:44:53.923Z,11.50
2018-05-21T01:47:22.247Z,11.40
2018-05-21T01:49:52.085Z,11.20
2018-05-21T01:52:21.109Z,11.30
2018-05-21T01:54:49.610Z,11.20
2018-05-21T01:57:17.977Z,11.20
2018-05-21T01:59:46.270Z,11.30
2018-05-21T02:02:14.536Z,11.40
2018-05-21T02:04:42.968Z,11.30
2018-05-21T02:07:11.219Z,11.30
2018-05-21T02:09:39.510Z,11.40
2018-05-21T02:12:07.782Z,11.50
2018-05-21T02:14:37.571Z,11.30
2018-05-21T02:17:06.187Z,11.30
2018-05-21T02:19:35.266Z,11.20
2018-05-21T02:22:03.516Z,11.30
2018-05-21T02:24:32.217Z,11.40
2018-05-21T02:27:00.492Z,11.30
2018-05-21T02:29:28.807Z,11.10
2018-05-21T02:31:57.826Z,11.10
2018-05-21T02:34:26.245Z,11.00
2018-05-21T02:36:54.536Z,11.00
2018-05-21T02:39:22.835Z,11.00
2018-05-21T02:41:51.106Z,10.90
2018-05-21T02:44:19.487Z,10.80
2018-05-21T02:46:47.778Z,10.80
2018-05-21T02:49:16.779Z,10.90
2018-05-21T02:51:45.059Z,10.90
2018-05-21T02:54:13.414Z,10.90
2018-05-21T02:56:41.699Z,10.90
2018-05-21T02:59:10.780Z,10.80
2018-05-21T03:01:39.146Z,10.80
2018-05-21T03:06:42.028Z,10.70
2018-05-21T03:09:10.332Z,10.70
2018-05-21T03:11:38.646Z,10.70
2018-05-21T03:14:06.910Z,10.70
2018-05-21T03:16:35.968Z,10.70
2018-05-21T03:19:04.216Z,10.70
2018-05-21T03:21:32.526Z,10.70
2018-05-21T03:24:00.776Z,10.70
2018-05-21T03:26:29.063Z,10.70
2018-05-21T03:28:57.317Z,10.70
2018-05-21T03:31:25.637Z,10.70
2018-05-21T03:33:54.265Z,10.60
2018-05-21T03:36:22.607Z,10.50
2018-05-21T03:38:52.072Z,10.50
2018-05-21T03:41:20.373Z,10.50
2018-05-21T03:43:48.680Z,10.50
2018-05-21T03:46:17.864Z,10.70
2018-05-21T03:48:46.116Z,10.70
2018-05-21T03:51:15.240Z,10.70
2018-05-21T03:53:44.256Z,10.80
2018-05-21T03:56:13.307Z,10.70
2018-05-21T03:58:54.515Z,10.70
2018-05-21T04:01:35.650Z,10.70
2018-05-21T04:04:03.948Z,10.70
2018-05-21T04:06:33.106Z,10.80
2018-05-21T04:09:01.343Z,10.70
2018-05-21T04:11:29.672Z,10.70
2018-05-21T04:13:58.207Z,10.80
2018-05-21T04:16:27.323Z,10.80
2018-05-21T04:18:55.590Z,10.80
2018-05-21T04:21:24.649Z,10.90
2018-05-21T04:23:53.185Z,10.90
2018-05-21T04:26:21.526Z,10.90
2018-05-21T04:28:49.916Z,10.90
2018-05-21T04:31:19.429Z,11.10
2018-05-21T04:33:48.042Z,11.00
2018-05-21T04:36:16.358Z,11.00
2018-05-21T04:38:44.663Z,11.00
2018-05-21T04:41:13.723Z,11.10
2018-05-21T04:43:42.018Z,11.10
2018-05-21T04:46:10.294Z,11.10
2018-05-21T04:48:39.494Z,11.20
2018-05-21T04:51:07.743Z,11.20
2018-05-21T04:53:36.190Z,11.20
2018-05-21T04:56:04.452Z,11.20
2018-05-21T04:58:32.632Z,11.40
2018-05-21T05:01:01.565Z,11.70
2018-05-21T05:03:29.795Z,11.70
2018-05-21T05:05:58.719Z,11.90
2018-05-21T05:08:26.896Z,11.80
2018-05-21T05:10:55.047Z,11.90
2018-05-21T05:13:24.196Z,12.00
2018-05-21T05:15:52.512Z,12.00
2018-05-21T05:18:21.644Z,12.30
2018-05-21T05:20:50.172Z,12.30
2018-05-21T05:23:19.240Z,12.40
2018-05-21T05:25:49.125Z,12.50
2018-05-21T05:28:17.743Z,12.50
2018-05-21T05:30:45.974Z,12.60
2018-05-21T05:33:15.015Z,12.80
2018-05-21T05:35:43.943Z,12.80
2018-05-21T05:38:12.467Z,12.80
2018-05-21T05:40:40.723Z,12.90
2018-05-21T05:43:11.309Z,12.90
2018-05-21T05:45:40.531Z,13.10
2018-05-21T05:48:08.715Z,13.00
2018-05-21T05:50:37.018Z,13.20
2018-05-21T05:53:05.397Z,13.20
2018-05-21T05:55:33.647Z,13.10
2018-05-21T05:58:01.804Z,13.10
2018-05-21T06:00:30.003Z,13.40
2018-05-21T06:02:58.411Z,13.60
2018-05-21T06:05:26.677Z,13.50
2018-05-21T06:07:55.190Z,13.60
2018-05-21T06:10:24.140Z,13.70
2018-05-21T06:12:52.347Z,13.80
2018-05-21T06:15:20.528Z,13.90
2018-05-21T06:17:48.692Z,14.00
2018-05-21T06:20:16.881Z,14.10
2018-05-21T06:22:45.032Z,14.20
2018-05-21T06:25:13.220Z,14.10
2018-05-21T06:27:42.142Z,14.30
2018-05-21T06:30:11.080Z,14.40
2018-05-21T06:32:40.488Z,14.70
2018-05-21T06:35:08.719Z,14.70
2018-05-21T06:37:36.887Z,14.60
2018-05-21T06:40:05.078Z,14.80
2018-05-21T06:42:34.101Z,15.30
2018-05-21T06:45:02.281Z,15.30
2018-05-21T06:47:30.446Z,15.10
2018-05-21T06:49:58.636Z,15.10
2018-05-21T06:52:26.807Z,15.20
2018-05-21T06:54:55.281Z,15.30
2018-05-21T06:57:23.515Z,15.50
2018-05-21T06:59:51.733Z,15.70
2018-05-21T07:02:19.911Z,15.80
2018-05-21T07:04:48.084Z,16.00
2018-05-21T07:07:16.236Z,16.10
2018-05-21T07:09:44.421Z,16.20
2018-05-21T07:12:12.580Z,16.30
2018-05-21T07:14:41.463Z,16.30
2018-05-21T07:17:09.676Z,16.40
2018-05-21T07:19:37.945Z,16.50
2018-05-21T07:22:06.166Z,16.80
2018-05-21T07:24:35.079Z,16.90
2018-05-21T07:27:03.723Z,16.90
2018-05-21T07:29:32.768Z,17.10
2018-05-21T07:32:00.936Z,17.00
2018-05-21T07:34:29.088Z,17.20
2018-05-21T07:36:57.320Z,17.40
2018-05-21T07:39:25.503Z,17.40
2018-05-21T07:41:53.671Z,17.40
2018-05-21T07:44:21.812Z,17.50
2018-05-21T07:46:49.992Z,17.60
2018-05-21T07:49:18.187Z,17.70
2018-05-21T07:51:46.388Z,17.80
2018-05-21T07:54:14.833Z,17.80
2018-05-21T07:56:43.018Z,17.70
2018-05-21T07:59:11.176Z,18.00
2018-05-21T08:01:39.343Z,17.90
2018-05-21T08:04:07.983Z,18.10
2018-05-21T08:06:36.923Z,18.60
2018-05-21T08:09:06.899Z,18.70
2018-05-21T08:11:35.124Z,19.30
2018-05-21T08:14:03.285Z,19.40
2018-05-21T08:16:31.983Z,19.30
2018-05-21T08:19:00.246Z,19.30
2018-05-21T08:21:29.295Z,19.20
2018-05-21T08:23:58.476Z,19.30
2018-05-21T08:26:26.991Z,19.30
2018-05-21T08:28:55.202Z,19.40
2018-05-21T08:31:23.359Z,19.70
2018-05-21T08:33:52.468Z,19.70
2018-05-21T08:36:20.949Z,19.60
2018-05-21T08:38:49.429Z,19.50
2018-05-21T08:41:17.788Z,19.40
2018-05-21T08:43:45.951Z,19.70
2018-05-21T08:46:14.196Z,19.80
2018-05-21T08:48:44.057Z,20.10
2018-05-21T08:51:12.645Z,20.10
2018-05-21T08:53:41.126Z,20.20
2018-05-21T08:56:10.404Z,20.50
2018-05-21T08:58:38.707Z,20.50
2018-05-21T09:01:08.298Z,20.70
2018-05-21T09:03:37.612Z,20.80
2018-05-21T09:06:06.297Z,20.60
2018-05-21T09:08:34.785Z,20.70
2018-05-21T09:11:03.455Z,20.80
2018-05-21T09:13:31.613Z,20.90
2018-05-21T09:18:34.481Z,20.80
2018-05-21T09:21:02.702Z,21.00
2018-05-21T09:23:30.915Z,21.10
2018-05-21T09:25:59.089Z,21.30
2018-05-21T09:28:27.271Z,21.40
2018-05-21T09:30:57.097Z,21.40
2018-05-21T09:33:25.270Z,21.40
2018-05-21T09:35:54.294Z,21.60
2018-05-21T09:38:23.307Z,21.80
2018-05-21T09:40:51.475Z,21.70
2018-05-21T09:43:19.660Z,21.90
2018-05-21T09:45:47.797Z,21.70
2018-05-21T09:48:15.995Z,21.70
2018-05-21T09:50:44.133Z,21.70
2018-05-21T09:53:12.315Z,21.80
2018-05-21T09:55:40.523Z,21.90
2018-05-21T09:58:09.483Z,21.80
2018-05-21T10:00:37.800Z,21.90
2018-05-21T10:03:05.956Z,22.00
2018-05-21T10:05:34.112Z,22.20
2018-05-21T10:08:02.320Z,22.10
2018-05-21T10:10:30.481Z,22.20
2018-05-21T10:12:58.640Z,22.30
2018-05-21T10:15:26.822Z,22.50
2018-05-21T10:17:54.962Z,22.50
2018-05-21T10:20:23.160Z,22.10
2018-05-21T10:22:51.312Z,22.30
2018-05-21T10:25:19.476Z,22.40
2018-05-21T10:27:48.410Z,22.10
2018-05-21T10:30:16.688Z,22.10
2018-05-21T10:32:44.841Z,22.60
2018-05-21T10:35:13.004Z,22.50
2018-05-21T10:37:41.207Z,22.80
2018-05-21T10:40:09.590Z,23.10
2018-05-21T10:42:37.732Z,23.00
2018-05-21T10:45:05.897Z,23.20
2018-05-21T10:47:34.043Z,23.20
2018-05-21T10:50:02.797Z,23.40
2018-05-21T10:52:30.941Z,23.50
2018-05-21T10:54:59.200Z,23.80
2018-05-21T10:57:28.193Z,23.80
2018-05-21T10:59:56.303Z,23.80
2018-05-21T11:02:24.450Z,24.00
2018-05-21T11:04:52.625Z,24.10
2018-05-21T11:07:21.528Z,24.10
2018-05-21T11:09:49.686Z,24.00
2018-05-21T11:12:18.662Z,24.40
2018-05-21T11:14:46.783Z,24.40
2018-05-21T11:17:14.915Z,24.30
2018-05-21T11:19:43.866Z,24.20
2018-05-21T11:22:12.012Z,24.20
2018-05-21T11:24:40.197Z,24.30
2018-05-21T11:27:08.352Z,24.30
2018-05-21T11:29:41.120Z,24.40
2018-05-21T11:32:09.448Z,24.60
2018-05-21T11:34:37.608Z,24.70
2018-05-21T11:37:05.746Z,24.50
2018-05-21T11:39:33.992Z,24.70
2018-05-21T11:42:02.130Z,24.80
2018-05-21T11:44:30.435Z,24.80
2018-05-21T11:46:58.678Z,24.60
2018-05-21T11:49:28.259Z,24.90
2018-05-21T11:51:56.684Z,25.00
2018-05-21T11:54:24.928Z,24.90
2018-05-21T11:56:53.237Z,24.80
2018-05-21T11:59:21.493Z,24.60
2018-05-21T12:01:51.317Z,25.10
2018-05-21T12:04:19.568Z,25.10
2018-05-21T12:06:47.982Z,25.20
2018-05-21T12:09:16.488Z,25.30
2018-05-21T12:11:45.148Z,25.20
2018-05-21T12:14:13.469Z,25.10
2018-05-21T12:16:42.335Z,25.10
2018-05-21T12:19:10.706Z,25.20
2018-05-21T12:21:40.392Z,25.50
2018-05-21T12:24:09.592Z,25.50
2018-05-21T12:26:37.975Z,25.60
2018-05-21T12:29:06.967Z,25.60
2018-05-21T12:31:35.272Z,25.40
2018-05-21T12:34:03.554Z,25.50
2018-05-21T12:36:31.863Z,25.60
2018-05-21T12:39:00.984Z,25.70
2018-05-21T12:41:30.833Z,25.60
2018-05-21T12:43:59.071Z,25.60
2018-05-21T12:46:27.463Z,25.60
2018-05-21T12:48:56.219Z,25.80
2018-05-21T12:51:24.613Z,25.70
2018-05-21T12:53:52.865Z,26.00
2018-05-21T12:56:21.161Z,26.10
2018-05-21T12:58:49.396Z,25.90
2018-05-21T13:01:17.692Z,25.80
2018-05-21T13:03:45.997Z,25.60
2018-05-21T13:06:14.376Z,25.80
2018-05-21T13:08:42.647Z,26.00
2018-05-21T13:11:10.821Z,26.10
2018-05-21T13:13:38.956Z,26.00
2018-05-21T13:16:07.104Z,26.10
2018-05-21T13:18:35.360Z,26.00
2018-05-21T13:21:03.524Z,25.80
2018-05-21T13:23:31.743Z,26.10
2018-05-21T13:26:00.663Z,26.10
2018-05-21T13:28:29.084Z,26.00
2018-05-21T13:30:57.248Z,26.20
2018-05-21T13:33:25.422Z,26.20
2018-05-21T13:35:53.595Z,26.10
2018-05-21T13:38:21.768Z,26.00
2018-05-21T13:40:49.916Z,26.00
2018-05-21T13:43:18.121Z,26.00
2018-05-21T13:45:46.237Z,26.20
2018-05-21T13:48:14.466Z,26.20
2018-05-21T13:50:42.628Z,26.10
2018-05-21T13:53:10.782Z,25.90
2018-05-21T13:55:38.924Z,26.10
2018-05-21T13:58:07.162Z,26.20
2018-05-21T14:00:35.312Z,26.20
2018-05-21T14:03:03.470Z,26.00
2018-05-21T14:05:31.608Z,26.00
2018-05-21T14:08:00.539Z,26.30
2018-05-21T14:10:28.682Z,26.30
2018-05-21T14:12:56.856Z,25.90
2018-05-21T14:15:25.760Z,26.10
2018-05-21T14:17:53.991Z,26.10
2018-05-21T14:20:23.656Z,26.10
2018-05-21T14:22:51.825Z,26.00
2018-05-21T14:25:20.071Z,26.10
2018-05-21T14:27:48.229Z,26.00
2018-05-21T14:30:16.413Z,26.00
2018-05-21T14:32:44.587Z,26.00
2018-05-21T14:35:12.735Z,26.00
2018-05-21T14:37:40.915Z,26.00
2018-05-21T14:40:09.076Z,25.90
2018-05-21T14:42:37.224Z,25.90
2018-05-21T14:45:05.400Z,26.00
2018-05-21T14:47:33.556Z,26.00
2018-05-21T14:50:02.484Z,26.00
2018-05-21T14:52:30.653Z,26.00
2018-05-21T14:54:58.861Z,25.80
2018-05-21T14:57:26.963Z,25.70
2018-05-21T14:59:55.892Z,25.90
2018-05-21T15:02:24.244Z,25.90
2018-05-21T15:04:52.433Z,25.90
2018-05-21T15:07:20.578Z,25.80
2018-05-21T15:09:49.510Z,25.90
2018-05-21T15:12:17.657Z,25.90
2018-05-21T15:14:45.815Z,26.00
2018-05-21T15:17:14.736Z,25.80
2018-05-21T15:19:42.898Z,25.80
2018-05-21T15:22:11.092Z,25.80
2018-05-21T15:24:39.988Z,25.80
2018-05-21T15:27:08.188Z,25.80
2018-05-21T15:29:36.365Z,25.70
2018-05-21T15:32:04.502Z,25.70
2018-05-21T15:34:32.672Z,25.70
2018-05-21T15:37:00.880Z,25.70
2018-05-21T15:39:29.043Z,25.50
2018-05-21T15:41:57.183Z,25.50
2018-05-21T15:44:25.353Z,25.40
2018-05-21T15:46:54.256Z,25.30
2018-05-21T15:49:22.417Z,25.30
2018-05-21T15:51:50.572Z,25.20
2018-05-21T15:54:19.506Z,25.20
2018-05-21T15:56:48.520Z,25.10
2018-05-21T15:59:16.660Z,25.10
2018-05-21T16:01:44.824Z,25.00
2018-05-21T16:04:12.991Z,25.10
2018-05-21T16:06:41.167Z,25.10
2018-05-21T16:09:10.442Z,25.10
2018-05-21T16:11:38.604Z,25.00
2018-05-21T16:14:06.751Z,25.00
2018-05-21T16:16:34.910Z,25.00
2018-05-21T16:19:03.060Z,25.00
2018-05-21T16:21:31.986Z,24.80
2018-05-21T16:24:00.129Z,24.80
2018-05-21T16:26:29.144Z,24.70
2018-05-21T16:28:57.284Z,24.70
2018-05-21T16:31:26.210Z,24.50
2018-05-21T16:33:54.359Z,24.50
2018-05-21T16:36:24.212Z,24.50
2018-05-21T16:38:52.351Z,24.50
2018-05-21T16:41:21.289Z,24.40
2018-05-21T16:43:49.772Z,24.30
2018-05-21T16:46:17.938Z,24.40
2018-05-21T16:48:46.082Z,24.30
2018-05-21T16:51:14.242Z,24.10
2018-05-21T16:53:43.221Z,23.90
2018-05-21T16:56:12.639Z,23.90
2018-05-21T16:58:41.545Z,23.40
2018-05-21T17:01:09.700Z,23.40
2018-05-21T17:03:38.612Z,23.20
2018-05-21T17:06:06.843Z,23.20
2018-05-21T17:08:34.996Z,22.90
2018-05-21T17:11:03.159Z,22.60
2018-05-21T17:13:31.303Z,22.40
2018-05-21T17:15:59.516Z,22.50
2018-05-21T17:18:27.643Z,22.50
2018-05-21T17:20:55.816Z,22.40
2018-05-21T17:23:23.968Z,22.20
2018-05-21T17:25:52.270Z,22.20
2018-05-21T17:28:20.433Z,22.10
2018-05-21T17:30:49.375Z,21.80
2018-05-21T17:33:17.539Z,21.80
2018-05-21T17:35:45.768Z,21.70
2018-05-21T17:38:13.896Z,21.60
2018-05-21T17:40:42.044Z,21.50
2018-05-21T17:43:10.203Z,21.50
2018-05-21T17:45:38.348Z,21.30
2018-05-21T17:48:07.300Z,21.20
2018-05-21T17:50:35.436Z,21.10
2018-05-21T17:53:04.364Z,21.10
2018-05-21T17:55:32.544Z,21.10
2018-05-21T17:58:00.715Z,21.10
2018-05-21T18:00:28.857Z,21.00
2018-05-21T18:02:57.031Z,20.80
2018-05-21T18:05:25.268Z,20.80
2018-05-21T18:07:53.436Z,20.70
2018-05-21T18:10:21.583Z,20.70
2018-05-21T18:12:49.742Z,20.70
2018-05-21T18:15:17.952Z,20.70
2018-05-21T18:17:46.115Z,20.60
2018-05-21T18:20:14.273Z,20.70
2018-05-21T18:22:42.443Z,20.70
2018-05-21T18:25:10.600Z,20.60
2018-05-21T18:27:38.771Z,20.40
2018-05-21T18:30:06.967Z,20.40
2018-05-21T18:32:35.864Z,20.30
2018-05-21T18:35:04.010Z,20.30
2018-05-21T18:37:32.188Z,20.30
2018-05-21T18:40:00.359Z,20.20
2018-05-21T18:42:29.290Z,20.10
2018-05-21T18:44:57.459Z,20.10
2018-05-21T18:47:25.600Z,20.10
2018-05-21T18:49:53.785Z,20.00
2018-05-21T18:52:23.636Z,20.00
2018-05-21T18:54:53.068Z,19.90
2018-05-21T18:57:21.984Z,19.90
2018-05-21T18:59:50.153Z,19.90
2018-05-21T19:02:18.306Z,19.90
2018-05-21T19:04:46.590Z,19.90
2018-05-21T19:07:15.487Z,19.80
2018-05-21T19:09:44.440Z,19.70
2018-05-21T19:12:12.599Z,19.70
2018-05-21T19:14:40.799Z,19.70
2018-05-21T19:17:08.948Z,19.70
2018-05-21T19:19:37.127Z,19.70
2018-05-21T19:22:05.271Z,19.70
2018-05-21T19:24:33.444Z,19.60
2018-05-21T19:27:01.612Z,19.60
2018-05-21T19:29:29.804Z,19.60
2018-05-21T19:31:57.952Z,19.60
2018-05-21T19:34:26.878Z,19.60
2018-05-21T19:36:55.032Z,19.60
2018-05-21T19:39:23.199Z,19.40
2018-05-21T19:41:51.350Z,19.20
2018-05-21T19:44:19.649Z,18.90
2018-05-21T19:46:47.767Z,18.70
2018-05-21T19:49:17.160Z,18.80
2018-05-21T19:51:45.336Z,18.80
2018-05-21T19:54:13.636Z,19.00
2018-05-21T19:56:41.792Z,18.90
2018-05-21T19:59:11.800Z,18.90
2018-05-21T20:01:39.940Z,18.90
2018-05-21T20:04:08.106Z,18.90
2018-05-21T20:06:36.292Z,18.90
2018-05-21T20:09:05.275Z,19.00
2018-05-21T20:11:33.460Z,19.00
2018-05-21T20:14:01.666Z,19.00
2018-05-21T20:16:29.828Z,19.20
2018-05-21T20:18:57.968Z,19.20
2018-05-21T20:21:26.138Z,19.10
2018-05-21T20:23:54.364Z,19.00
2018-05-21T20:26:22.536Z,18.80
2018-05-21T20:28:50.679Z,18.90
2018-05-21T20:31:18.868Z,19.00
2018-05-21T20:33:47.020Z,18.90
2018-05-21T20:36:15.189Z,18.80
2018-05-21T20:38:43.359Z,18.80
2018-05-21T20:41:12.296Z,18.70
2018-05-21T20:43:40.527Z,18.70
2018-05-21T20:46:08.692Z,18.70
2018-05-21T20:48:36.844Z,18.70
2018-05-21T20:51:05.028Z,18.70
2018-05-21T20:53:33.286Z,18.60
2018-05-21T20:56:01.484Z,18.50
2018-05-21T20:58:30.412Z,18.30
2018-05-21T21:00:58.583Z,18.20
2018-05-21T21:03:26.728Z,17.90
2018-05-21T21:05:55.659Z,17.80
2018-05-21T21:08:23.811Z,17.80
2018-05-21T21:10:51.975Z,17.80
2018-05-21T21:13:20.889Z,17.50
2018-05-21T21:15:49.063Z,17.40
2018-05-21T21:18:17.213Z,17.40
2018-05-21T21:20:46.152Z,16.80
2018-05-21T21:23:14.549Z,16.80
2018-05-21T21:25:42.682Z,16.80
2018-05-21T21:28:10.878Z,16.80
2018-05-21T21:30:39.043Z,16.80
2018-05-21T21:33:07.475Z,16.90
2018-05-21T21:35:36.231Z,16.60
2018-05-21T21:38:04.404Z,16.70
2018-05-21T21:40:32.547Z,16.50
2018-05-21T21:43:00.722Z,16.10
2018-05-21T21:45:28.871Z,16.30
2018-05-21T21:47:57.060Z,16.40
2018-05-21T21:50:25.215Z,16.30
2018-05-21T21:52:53.480Z,16.30
2018-05-21T21:55:21.646Z,16.20
2018-05-21T21:57:49.796Z,16.10
2018-05-21T22:00:17.965Z,16.30
2018-05-21T22:02:46.954Z,16.30
2018-05-21T22:05:15.095Z,16.20
2018-05-21T22:07:43.276Z,15.80
2018-05-21T22:10:11.425Z,15.90
2018-05-21T22:12:40.369Z,15.80
2018-05-21T22:15:08.527Z,15.80
2018-05-21T22:17:36.704Z,15.90
2018-05-21T22:20:04.883Z,15.80
2018-05-21T22:22:33.063Z,15.80
2018-05-21T22:25:01.217Z,15.60
2018-05-21T22:27:29.399Z,15.40
2018-05-21T22:29:57.549Z,15.60
2018-05-21T22:32:25.723Z,15.80
2018-05-21T22:34:53.891Z,15.70
2018-05-21T22:37:22.824Z,15.10
2018-05-21T22:39:50.966Z,15.10
2018-05-21T22:42:19.160Z,14.80
2018-05-21T22:44:47.322Z,15.00
2018-05-21T22:47:15.472Z,15.30
2018-05-21T22:49:43.680Z,15.50
2018-05-21T22:52:11.874Z,15.50
2018-05-21T22:54:40.044Z,15.40
2018-05-21T22:57:08.208Z,15.20
2018-05-21T22:59:36.383Z,15.20
2018-05-21T23:02:05.397Z,14.90
2018-05-21T23:04:33.670Z,14.90
2018-05-21T23:07:01.827Z,15.00
2018-05-21T23:09:30.000Z,15.20
2018-05-21T23:11:58.146Z,15.20
2018-05-21T23:14:26.343Z,15.20
2018-05-21T23:16:54.492Z,15.30
2018-05-21T23:19:22.663Z,15.10
2018-05-21T23:21:51.671Z,15.30
2018-05-21T23:24:19.845Z,15.30
2018-05-21T23:26:47.988Z,15.50
2018-05-21T23:29:16.922Z,15.20
2018-05-21T23:31:45.160Z,15.20
2018-05-21T23:34:14.099Z,15.20
2018-05-21T23:36:42.264Z,15.20
2018-05-21T23:39:11.079Z,15.20
2018-05-21T23:41:39.228Z,15.20
2018-05-21T23:44:07.430Z,15.20
2018-05-21T23:46:35.587Z,15.00
2018-05-21T23:49:03.765Z,14.90
2018-05-21T23:51:31.921Z,14.90
2018-05-21T23:54:00.102Z,14.80
2018-05-21T23:56:28.247Z,14.70
2018-05-21T23:58:57.206Z,14.70
